sensor_id;sensor_type;location;lat;lon;timestamp;temperature;humidity
45491;DHT22;31237;45.586;13.782;2022-11-11T00:01:00;11.80;92.50
45491;DHT22;31237;45.586;13.782;2022-11-11T00:03:27;11.80;92.50
45491;DHT22;31237;45.586;13.782;2022-11-11T00:05:53;11.70;92.50
45491;DHT22;31237;45.586;13.782;2022-11-11T00:08:19;11.70;92.60
45491;DHT22;31237;45.586;13.782;2022-11-11T00:10:44;11.60;92.60
45491;DHT22;31237;45.586;13.782;2022-11-11T00:13:11;11.60;92.70
45491;DHT22;31237;45.586;13.782;2022-11-11T00:15:37;11.60;92.70
45491;DHT22;31237;45.586;13.782;2022-11-11T00:18:04;11.50;92.70
45491;DHT22;31237;45.586;13.782;2022-11-11T00:20:48;11.50;92.80
45491;DHT22;31237;45.586;13.782;2022-11-11T00:23:33;11.40;92.80
45491;DHT22;31237;45.586;13.782;2022-11-11T00:26:17;11.40;92.80
45491;DHT22;31237;45.586;13.782;2022-11-11T00:28:43;11.40;92.90
45491;DHT22;31237;45.586;13.782;2022-11-11T00:31:10;11.30;93.00
45491;DHT22;31237;45.586;13.782;2022-11-11T00:33:36;11.30;93.00
45491;DHT22;31237;45.586;13.782;2022-11-11T00:36:03;11.30;93.20
45491;DHT22;31237;45.586;13.782;2022-11-11T00:38:28;11.30;93.10
45491;DHT22;31237;45.586;13.782;2022-11-11T00:41:22;11.40;93.20
45491;DHT22;31237;45.586;13.782;2022-11-11T00:43:48;11.40;93.20
45491;DHT22;31237;45.586;13.782;2022-11-11T00:46:15;11.40;93.20
45491;DHT22;31237;45.586;13.782;2022-11-11T00:49:00;11.40;93.20
45491;DHT22;31237;45.586;13.782;2022-11-11T00:51:44;11.50;93.20
45491;DHT22;31237;45.586;13.782;2022-11-11T00:54:10;11.50;93.10
45491;DHT22;31237;45.586;13.782;2022-11-11T00:56:36;11.50;93.10
45491;DHT22;31237;45.586;13.782;2022-11-11T00:59:06;11.60;93.10
45491;DHT22;31237;45.586;13.782;2022-11-11T01:01:34;11.60;93.00
45491;DHT22;31237;45.586;13.782;2022-11-11T01:04:00;11.60;92.90
45491;DHT22;31237;45.586;13.782;2022-11-11T01:06:26;11.70;92.90
45491;DHT22;31237;45.586;13.782;2022-11-11T01:08:52;11.70;92.80
45491;DHT22;31237;45.586;13.782;2022-11-11T01:11:20;11.70;92.80
45491;DHT22;31237;45.586;13.782;2022-11-11T01:13:46;11.70;92.70
45491;DHT22;31237;45.586;13.782;2022-11-11T01:16:23;11.70;92.70
45491;DHT22;31237;45.586;13.782;2022-11-11T01:18:50;11.70;92.60
45491;DHT22;31237;45.586;13.782;2022-11-11T01:21:21;11.70;92.50
45491;DHT22;31237;45.586;13.782;2022-11-11T01:23:48;11.70;92.50
45491;DHT22;31237;45.586;13.782;2022-11-11T01:26:18;11.70;92.50
45491;DHT22;31237;45.586;13.782;2022-11-11T01:28:47;11.70;92.50
45491;DHT22;31237;45.586;13.782;2022-11-11T01:31:14;11.70;92.50
45491;DHT22;31237;45.586;13.782;2022-11-11T01:33:40;11.70;92.50
45491;DHT22;31237;45.586;13.782;2022-11-11T01:38:36;11.60;92.40
45491;DHT22;31237;45.586;13.782;2022-11-11T01:41:04;11.60;92.40
45491;DHT22;31237;45.586;13.782;2022-11-11T01:43:51;11.60;92.40
45491;DHT22;31237;45.586;13.782;2022-11-11T01:48:49;11.50;92.50
45491;DHT22;31237;45.586;13.782;2022-11-11T01:51:38;11.50;92.50
45491;DHT22;31237;45.586;13.782;2022-11-11T01:54:36;11.40;92.50
45491;DHT22;31237;45.586;13.782;2022-11-11T01:59:55;11.40;92.60
45491;DHT22;31237;45.586;13.782;2022-11-11T02:02:49;11.40;92.60
45491;DHT22;31237;45.586;13.782;2022-11-11T02:05:17;11.40;92.60
45491;DHT22;31237;45.586;13.782;2022-11-11T02:08:17;11.30;92.80
45491;DHT22;31237;45.586;13.782;2022-11-11T02:11:30;11.30;92.60
45491;DHT22;31237;45.586;13.782;2022-11-11T02:14:16;11.30;92.70
45491;DHT22;31237;45.586;13.782;2022-11-11T02:17:08;11.30;92.70
45491;DHT22;31237;45.586;13.782;2022-11-11T02:20:00;11.30;92.60
45491;DHT22;31237;45.586;13.782;2022-11-11T02:22:55;11.30;92.60
45491;DHT22;31237;45.586;13.782;2022-11-11T02:25:25;11.20;92.60
45491;DHT22;31237;45.586;13.782;2022-11-11T02:27:52;11.20;92.70
45491;DHT22;31237;45.586;13.782;2022-11-11T02:30:21;11.20;92.70
45491;DHT22;31237;45.586;13.782;2022-11-11T02:32:48;11.20;92.70
45491;DHT22;31237;45.586;13.782;2022-11-11T02:35:18;11.10;92.70
45491;DHT22;31237;45.586;13.782;2022-11-11T02:37:47;11.10;92.70
45491;DHT22;31237;45.586;13.782;2022-11-11T02:40:18;11.10;92.70
45491;DHT22;31237;45.586;13.782;2022-11-11T02:42:45;11.10;92.80
45491;DHT22;31237;45.586;13.782;2022-11-11T02:45:10;11.10;92.80
45491;DHT22;31237;45.586;13.782;2022-11-11T02:47:36;11.10;92.80
45491;DHT22;31237;45.586;13.782;2022-11-11T02:50:02;11.10;92.80
45491;DHT22;31237;45.586;13.782;2022-11-11T02:52:28;11.00;92.80
45491;DHT22;31237;45.586;13.782;2022-11-11T02:54:54;11.00;92.70
45491;DHT22;31237;45.586;13.782;2022-11-11T02:57:20;10.90;92.80
45491;DHT22;31237;45.586;13.782;2022-11-11T02:59:46;10.90;92.80
45491;DHT22;31237;45.586;13.782;2022-11-11T03:02:12;10.90;92.90
45491;DHT22;31237;45.586;13.782;2022-11-11T03:04:37;10.80;92.90
45491;DHT22;31237;45.586;13.782;2022-11-11T03:07:04;10.80;92.90
45491;DHT22;31237;45.586;13.782;2022-11-11T03:09:30;10.80;92.90
45491;DHT22;31237;45.586;13.782;2022-11-11T03:11:56;10.70;93.00
45491;DHT22;31237;45.586;13.782;2022-11-11T03:14:22;10.70;93.10
45491;DHT22;31237;45.586;13.782;2022-11-11T03:16:48;10.60;93.10
45491;DHT22;31237;45.586;13.782;2022-11-11T03:19:32;10.60;93.20
45491;DHT22;31237;45.586;13.782;2022-11-11T03:21:58;10.60;93.20
45491;DHT22;31237;45.586;13.782;2022-11-11T03:24:24;10.60;93.30
45491;DHT22;31237;45.586;13.782;2022-11-11T03:27:10;10.60;93.30
45491;DHT22;31237;45.586;13.782;2022-11-11T03:29:36;10.60;93.40
45491;DHT22;31237;45.586;13.782;2022-11-11T03:32:02;10.60;93.40
45491;DHT22;31237;45.586;13.782;2022-11-11T03:34:28;10.60;93.40
45491;DHT22;31237;45.586;13.782;2022-11-11T03:36:53;10.60;93.40
45491;DHT22;31237;45.586;13.782;2022-11-11T03:39:37;10.60;93.40
45491;DHT22;31237;45.586;13.782;2022-11-11T03:42:03;10.60;93.40
45491;DHT22;31237;45.586;13.782;2022-11-11T03:44:29;10.50;93.60
45491;DHT22;31237;45.586;13.782;2022-11-11T03:46:54;10.50;93.40
45491;DHT22;31237;45.586;13.782;2022-11-11T03:49:20;10.50;93.40
45491;DHT22;31237;45.586;13.782;2022-11-11T03:51:46;10.50;93.40
45491;DHT22;31237;45.586;13.782;2022-11-11T03:54:12;10.50;93.70
45491;DHT22;31237;45.586;13.782;2022-11-11T03:56:37;10.50;93.50
45491;DHT22;31237;45.586;13.782;2022-11-11T03:59:03;10.50;93.60
45491;DHT22;31237;45.586;13.782;2022-11-11T04:01:29;10.50;93.60
45491;DHT22;31237;45.586;13.782;2022-11-11T04:04:13;10.50;93.60
45491;DHT22;31237;45.586;13.782;2022-11-11T04:06:57;10.50;93.50
45491;DHT22;31237;45.586;13.782;2022-11-11T04:09:42;10.50;93.50
45491;DHT22;31237;45.586;13.782;2022-11-11T04:12:27;10.50;93.50
45491;DHT22;31237;45.586;13.782;2022-11-11T04:14:53;10.50;93.50
45491;DHT22;31237;45.586;13.782;2022-11-11T04:17:37;10.50;93.50
45491;DHT22;31237;45.586;13.782;2022-11-11T04:20:03;10.40;93.50
45491;DHT22;31237;45.586;13.782;2022-11-11T04:22:47;10.40;93.50
45491;DHT22;31237;45.586;13.782;2022-11-11T04:25:13;10.40;93.60
45491;DHT22;31237;45.586;13.782;2022-11-11T04:27:57;10.40;93.60
45491;DHT22;31237;45.586;13.782;2022-11-11T04:30:42;10.30;93.60
45491;DHT22;31237;45.586;13.782;2022-11-11T04:33:08;10.30;93.60
45491;DHT22;31237;45.586;13.782;2022-11-11T04:35:34;10.20;93.50
45491;DHT22;31237;45.586;13.782;2022-11-11T04:38:00;10.20;93.50
45491;DHT22;31237;45.586;13.782;2022-11-11T04:40:44;10.20;93.60
45491;DHT22;31237;45.586;13.782;2022-11-11T04:43:29;10.10;93.60
45491;DHT22;31237;45.586;13.782;2022-11-11T04:45:59;10.10;93.80
45491;DHT22;31237;45.586;13.782;2022-11-11T04:48:25;10.10;93.80
45491;DHT22;31237;45.586;13.782;2022-11-11T04:50:51;10.20;93.90
45491;DHT22;31237;45.586;13.782;2022-11-11T04:53:17;10.10;93.90
45491;DHT22;31237;45.586;13.782;2022-11-11T04:55:44;10.20;93.90
45491;DHT22;31237;45.586;13.782;2022-11-11T04:58:30;10.20;93.90
45491;DHT22;31237;45.586;13.782;2022-11-11T05:00:57;10.10;93.90
45491;DHT22;31237;45.586;13.782;2022-11-11T05:03:23;10.10;93.90
45491;DHT22;31237;45.586;13.782;2022-11-11T05:05:51;10.10;93.90
45491;DHT22;31237;45.586;13.782;2022-11-11T05:08:37;10.10;93.90
45491;DHT22;31237;45.586;13.782;2022-11-11T05:11:27;10.10;93.90
45491;DHT22;31237;45.586;13.782;2022-11-11T05:13:54;10.10;93.90
45491;DHT22;31237;45.586;13.782;2022-11-11T05:16:43;10.10;94.00
45491;DHT22;31237;45.586;13.782;2022-11-11T05:19:27;10.20;94.00
45491;DHT22;31237;45.586;13.782;2022-11-11T05:22:20;10.20;94.00
45491;DHT22;31237;45.586;13.782;2022-11-11T05:24:47;10.20;94.10
45491;DHT22;31237;45.586;13.782;2022-11-11T05:27:32;10.20;94.00
45491;DHT22;31237;45.586;13.782;2022-11-11T05:29:57;10.20;94.00
45491;DHT22;31237;45.586;13.782;2022-11-11T05:32:24;10.20;94.00
45491;DHT22;31237;45.586;13.782;2022-11-11T05:34:50;10.20;93.90
45491;DHT22;31237;45.586;13.782;2022-11-11T05:37:16;10.20;94.00
45491;DHT22;31237;45.586;13.782;2022-11-11T05:39:43;10.20;94.00
45491;DHT22;31237;45.586;13.782;2022-11-11T05:42:09;10.20;94.00
45491;DHT22;31237;45.586;13.782;2022-11-11T05:44:35;10.20;94.00
45491;DHT22;31237;45.586;13.782;2022-11-11T05:47:01;10.20;94.00
45491;DHT22;31237;45.586;13.782;2022-11-11T05:49:27;10.20;94.00
45491;DHT22;31237;45.586;13.782;2022-11-11T05:51:53;10.20;94.00
45491;DHT22;31237;45.586;13.782;2022-11-11T05:54:20;10.20;94.00
45491;DHT22;31237;45.586;13.782;2022-11-11T05:56:46;10.20;93.90
45491;DHT22;31237;45.586;13.782;2022-11-11T05:59:12;10.20;93.90
45491;DHT22;31237;45.586;13.782;2022-11-11T06:01:38;10.20;93.90
45491;DHT22;31237;45.586;13.782;2022-11-11T06:04:05;10.20;94.00
45491;DHT22;31237;45.586;13.782;2022-11-11T06:06:31;10.20;94.00
45491;DHT22;31237;45.586;13.782;2022-11-11T06:08:57;10.20;94.00
45491;DHT22;31237;45.586;13.782;2022-11-11T06:11:23;10.30;94.00
45491;DHT22;31237;45.586;13.782;2022-11-11T06:13:49;10.30;94.00
45491;DHT22;31237;45.586;13.782;2022-11-11T06:16:15;10.30;94.30
45491;DHT22;31237;45.586;13.782;2022-11-11T06:18:41;10.30;93.90
45491;DHT22;31237;45.586;13.782;2022-11-11T06:21:07;10.40;93.90
45491;DHT22;31237;45.586;13.782;2022-11-11T06:23:33;10.40;93.80
45491;DHT22;31237;45.586;13.782;2022-11-11T06:25:58;10.40;93.80
45491;DHT22;31237;45.586;13.782;2022-11-11T06:28:43;10.40;93.80
45491;DHT22;31237;45.586;13.782;2022-11-11T06:31:18;10.40;93.80
45491;DHT22;31237;45.586;13.782;2022-11-11T06:33:44;10.40;93.90
45491;DHT22;31237;45.586;13.782;2022-11-11T06:36:12;10.40;94.20
45491;DHT22;31237;45.586;13.782;2022-11-11T06:38:38;10.40;93.90
45491;DHT22;31237;45.586;13.782;2022-11-11T06:41:05;10.40;93.90
45491;DHT22;31237;45.586;13.782;2022-11-11T06:43:31;10.40;93.80
45491;DHT22;31237;45.586;13.782;2022-11-11T06:45:57;10.40;93.80
45491;DHT22;31237;45.586;13.782;2022-11-11T06:48:24;10.50;93.90
45491;DHT22;31237;45.586;13.782;2022-11-11T06:50:50;10.50;93.90
45491;DHT22;31237;45.586;13.782;2022-11-11T06:53:18;10.50;93.90
45491;DHT22;31237;45.586;13.782;2022-11-11T06:55:44;10.60;93.80
45491;DHT22;31237;45.586;13.782;2022-11-11T06:58:14;10.60;93.80
45491;DHT22;31237;45.586;13.782;2022-11-11T07:00:41;10.70;93.70
45491;DHT22;31237;45.586;13.782;2022-11-11T07:03:09;10.80;93.60
45491;DHT22;31237;45.586;13.782;2022-11-11T07:05:35;10.80;93.50
45491;DHT22;31237;45.586;13.782;2022-11-11T07:08:07;10.90;93.50
45491;DHT22;31237;45.586;13.782;2022-11-11T07:10:35;10.90;93.40
45491;DHT22;31237;45.586;13.782;2022-11-11T07:13:01;11.00;93.30
45491;DHT22;31237;45.586;13.782;2022-11-11T07:15:27;11.00;93.20
45491;DHT22;31237;45.586;13.782;2022-11-11T07:17:53;11.10;93.00
45491;DHT22;31237;45.586;13.782;2022-11-11T07:20:19;11.10;92.90
45491;DHT22;31237;45.586;13.782;2022-11-11T07:22:45;11.10;92.90
45491;DHT22;31237;45.586;13.782;2022-11-11T07:25:11;11.20;92.90
45491;DHT22;31237;45.586;13.782;2022-11-11T07:27:38;11.20;92.80
45491;DHT22;31237;45.586;13.782;2022-11-11T07:30:05;11.20;92.80
45491;DHT22;31237;45.586;13.782;2022-11-11T07:32:31;11.20;92.80
45491;DHT22;31237;45.586;13.782;2022-11-11T07:34:57;11.20;92.90
45491;DHT22;31237;45.586;13.782;2022-11-11T07:37:22;11.20;92.90
45491;DHT22;31237;45.586;13.782;2022-11-11T07:39:48;11.20;92.90
45491;DHT22;31237;45.586;13.782;2022-11-11T07:42:14;11.30;92.90
45491;DHT22;31237;45.586;13.782;2022-11-11T07:44:40;11.40;92.90
45491;DHT22;31237;45.586;13.782;2022-11-11T07:47:06;11.40;92.90
45491;DHT22;31237;45.586;13.782;2022-11-11T07:49:32;11.50;92.80
45491;DHT22;31237;45.586;13.782;2022-11-11T07:51:58;11.60;92.80
45491;DHT22;31237;45.586;13.782;2022-11-11T07:54:24;11.70;92.70
45491;DHT22;31237;45.586;13.782;2022-11-11T07:56:50;11.70;92.70
45491;DHT22;31237;45.586;13.782;2022-11-11T07:59:16;11.80;92.70
45491;DHT22;31237;45.586;13.782;2022-11-11T08:01:41;11.90;92.70
45491;DHT22;31237;45.586;13.782;2022-11-11T08:04:07;12.00;92.60
45491;DHT22;31237;45.586;13.782;2022-11-11T08:06:33;12.00;92.60
45491;DHT22;31237;45.586;13.782;2022-11-11T08:08:58;12.10;92.50
45491;DHT22;31237;45.586;13.782;2022-11-11T08:11:24;12.20;92.50
45491;DHT22;31237;45.586;13.782;2022-11-11T08:14:08;12.30;92.50
45491;DHT22;31237;45.586;13.782;2022-11-11T08:16:34;12.30;92.40
45491;DHT22;31237;45.586;13.782;2022-11-11T08:19:00;12.40;92.40
45491;DHT22;31237;45.586;13.782;2022-11-11T08:21:26;12.40;92.30
45491;DHT22;31237;45.586;13.782;2022-11-11T08:23:52;12.50;92.20
45491;DHT22;31237;45.586;13.782;2022-11-11T08:26:18;12.60;92.10
45491;DHT22;31237;45.586;13.782;2022-11-11T08:28:44;12.60;92.10
45491;DHT22;31237;45.586;13.782;2022-11-11T08:31:10;12.70;92.10
45491;DHT22;31237;45.586;13.782;2022-11-11T08:33:36;12.70;92.10
45491;DHT22;31237;45.586;13.782;2022-11-11T08:36:03;12.70;92.00
45491;DHT22;31237;45.586;13.782;2022-11-11T08:38:30;12.80;92.00
45491;DHT22;31237;45.586;13.782;2022-11-11T08:41:02;12.80;91.90
45491;DHT22;31237;45.586;13.782;2022-11-11T08:43:29;12.90;91.90
45491;DHT22;31237;45.586;13.782;2022-11-11T08:46:01;13.00;91.90
45491;DHT22;31237;45.586;13.782;2022-11-11T08:48:31;13.00;91.90
45491;DHT22;31237;45.586;13.782;2022-11-11T08:50:57;13.10;91.90
45491;DHT22;31237;45.586;13.782;2022-11-11T08:53:23;13.10;91.80
45491;DHT22;31237;45.586;13.782;2022-11-11T08:55:49;13.20;91.80
45491;DHT22;31237;45.586;13.782;2022-11-11T08:58:15;13.20;91.70
45491;DHT22;31237;45.586;13.782;2022-11-11T09:00:40;13.30;91.70
45491;DHT22;31237;45.586;13.782;2022-11-11T09:03:09;13.40;91.60
45491;DHT22;31237;45.586;13.782;2022-11-11T09:05:39;13.50;91.60
45491;DHT22;31237;45.586;13.782;2022-11-11T09:08:06;13.50;91.50
45491;DHT22;31237;45.586;13.782;2022-11-11T09:10:36;13.60;91.70
45491;DHT22;31237;45.586;13.782;2022-11-11T09:13:02;13.70;91.40
45491;DHT22;31237;45.586;13.782;2022-11-11T09:15:29;13.80;91.30
45491;DHT22;31237;45.586;13.782;2022-11-11T09:17:55;13.80;91.20
45491;DHT22;31237;45.586;13.782;2022-11-11T09:20:21;13.90;91.20
45491;DHT22;31237;45.586;13.782;2022-11-11T09:22:48;14.00;91.00
45491;DHT22;31237;45.586;13.782;2022-11-11T09:25:14;14.10;91.00
45491;DHT22;31237;45.586;13.782;2022-11-11T09:27:40;14.10;91.00
45491;DHT22;31237;45.586;13.782;2022-11-11T09:30:07;14.20;90.90
45491;DHT22;31237;45.586;13.782;2022-11-11T09:32:33;14.30;90.80
45491;DHT22;31237;45.586;13.782;2022-11-11T09:34:59;14.30;90.70
45491;DHT22;31237;45.586;13.782;2022-11-11T09:37:25;14.40;90.70
45491;DHT22;31237;45.586;13.782;2022-11-11T09:39:51;14.40;90.60
45491;DHT22;31237;45.586;13.782;2022-11-11T09:47:30;14.60;90.40
45491;DHT22;31237;45.586;13.782;2022-11-11T09:50:11;14.70;90.40
45491;DHT22;31237;45.586;13.782;2022-11-11T09:52:59;14.80;90.20
45491;DHT22;31237;45.586;13.782;2022-11-11T09:55:54;14.90;90.20
45491;DHT22;31237;45.586;13.782;2022-11-11T09:58:36;14.90;90.10
45491;DHT22;31237;45.586;13.782;2022-11-11T10:01:17;15.00;90.00
45491;DHT22;31237;45.586;13.782;2022-11-11T10:06:37;15.20;89.50
45491;DHT22;31237;45.586;13.782;2022-11-11T10:12:00;15.30;88.70
45491;DHT22;31237;45.586;13.782;2022-11-11T10:14:34;15.40;88.50
45491;DHT22;31237;45.586;13.782;2022-11-11T10:19:33;15.50;87.60
45491;DHT22;31237;45.586;13.782;2022-11-11T10:22:34;15.60;87.50
45491;DHT22;31237;45.586;13.782;2022-11-11T10:27:43;15.70;87.30
45491;DHT22;31237;45.586;13.782;2022-11-11T10:30:24;15.80;87.40
45491;DHT22;31237;45.586;13.782;2022-11-11T10:33:00;15.80;87.00
45491;DHT22;31237;45.586;13.782;2022-11-11T10:35:29;15.90;86.60
45491;DHT22;31237;45.586;13.782;2022-11-11T10:38:24;15.90;86.40
45491;DHT22;31237;45.586;13.782;2022-11-11T10:40:52;15.90;86.10
45491;DHT22;31237;45.586;13.782;2022-11-11T10:43:27;15.90;86.20
45491;DHT22;31237;45.586;13.782;2022-11-11T10:48:25;15.90;86.00
45491;DHT22;31237;45.586;13.782;2022-11-11T10:50:56;15.90;85.20
45491;DHT22;31237;45.586;13.782;2022-11-11T10:56:42;16.00;85.00
45491;DHT22;31237;45.586;13.782;2022-11-11T10:59:12;16.10;85.40
45491;DHT22;31237;45.586;13.782;2022-11-11T11:01:53;16.10;84.60
45491;DHT22;31237;45.586;13.782;2022-11-11T11:04:45;16.10;85.30
45491;DHT22;31237;45.586;13.782;2022-11-11T11:07:15;16.20;84.90
45491;DHT22;31237;45.586;13.782;2022-11-11T11:09:49;16.20;84.70
45491;DHT22;31237;45.586;13.782;2022-11-11T11:12:21;16.30;84.40
45491;DHT22;31237;45.586;13.782;2022-11-11T11:14:53;16.30;85.20
45491;DHT22;31237;45.586;13.782;2022-11-11T11:17:29;16.30;84.50
45491;DHT22;31237;45.586;13.782;2022-11-11T11:20:14;16.30;84.30
45491;DHT22;31237;45.586;13.782;2022-11-11T11:25:11;16.40;84.20
45491;DHT22;31237;45.586;13.782;2022-11-11T11:27:37;16.40;83.80
45491;DHT22;31237;45.586;13.782;2022-11-11T11:30:14;16.40;83.60
45491;DHT22;31237;45.586;13.782;2022-11-11T11:32:40;16.40;83.60
45491;DHT22;31237;45.586;13.782;2022-11-11T11:35:09;16.40;83.50
45491;DHT22;31237;45.586;13.782;2022-11-11T11:37:53;16.40;82.80
45491;DHT22;31237;45.586;13.782;2022-11-11T11:40:19;16.40;82.70
45491;DHT22;31237;45.586;13.782;2022-11-11T11:42:44;16.40;82.70
45491;DHT22;31237;45.586;13.782;2022-11-11T11:45:24;16.40;82.70
45491;DHT22;31237;45.586;13.782;2022-11-11T11:48:01;16.40;82.70
45491;DHT22;31237;45.586;13.782;2022-11-11T11:50:55;16.40;82.60
45491;DHT22;31237;45.586;13.782;2022-11-11T11:56:18;16.40;83.20
45491;DHT22;31237;45.586;13.782;2022-11-11T11:59:05;16.40;82.00
45491;DHT22;31237;45.586;13.782;2022-11-11T12:01:59;16.40;81.60
45491;DHT22;31237;45.586;13.782;2022-11-11T12:05:10;16.40;81.00
45491;DHT22;31237;45.586;13.782;2022-11-11T12:19:10;16.30;81.30
45491;DHT22;31237;45.586;13.782;2022-11-11T12:38:19;16.40;80.70
45491;DHT22;31237;45.586;13.782;2022-11-11T12:43:44;16.40;79.60
45491;DHT22;31237;45.586;13.782;2022-11-11T12:49:12;16.40;79.60
45491;DHT22;31237;45.586;13.782;2022-11-11T12:55:02;16.50;79.40
45491;DHT22;31237;45.586;13.782;2022-11-11T13:00:48;16.50;80.10
45491;DHT22;31237;45.586;13.782;2022-11-11T13:12:10;16.50;79.80
45491;DHT22;31237;45.586;13.782;2022-11-11T13:14:50;16.50;79.80
45491;DHT22;31237;45.586;13.782;2022-11-11T13:17:17;16.50;79.70
45491;DHT22;31237;45.586;13.782;2022-11-11T13:19:50;16.50;80.00
45491;DHT22;31237;45.586;13.782;2022-11-11T13:24:50;16.40;79.20
45491;DHT22;31237;45.586;13.782;2022-11-11T13:27:22;16.40;79.80
45491;DHT22;31237;45.586;13.782;2022-11-11T13:33:24;16.40;79.80
45491;DHT22;31237;45.586;13.782;2022-11-11T13:35:56;16.30;80.10
45491;DHT22;31237;45.586;13.782;2022-11-11T13:38:30;16.30;80.30
45491;DHT22;31237;45.586;13.782;2022-11-11T13:40:57;16.30;80.70
45491;DHT22;31237;45.586;13.782;2022-11-11T13:43:41;16.20;80.90
45491;DHT22;31237;45.586;13.782;2022-11-11T13:48:52;16.10;80.90
45491;DHT22;31237;45.586;13.782;2022-11-11T13:51:40;15.90;80.90
45491;DHT22;31237;45.586;13.782;2022-11-11T13:54:22;15.90;81.10
45491;DHT22;31237;45.586;13.782;2022-11-11T13:56:50;15.80;81.30
45491;DHT22;31237;45.586;13.782;2022-11-11T13:59:25;15.70;81.50
45491;DHT22;31237;45.586;13.782;2022-11-11T14:02:25;15.70;81.60
45491;DHT22;31237;45.586;13.782;2022-11-11T14:15:44;15.40;82.80
45491;DHT22;31237;45.586;13.782;2022-11-11T14:20:43;15.20;83.10
45491;DHT22;31237;45.586;13.782;2022-11-11T14:25:49;15.10;83.50
45491;DHT22;31237;45.586;13.782;2022-11-11T14:28:48;15.00;83.70
45491;DHT22;31237;45.586;13.782;2022-11-11T14:41:51;14.70;84.30
45491;DHT22;31237;45.586;13.782;2022-11-11T14:58:12;14.40;85.20
45491;DHT22;31237;45.586;13.782;2022-11-11T15:00:57;14.40;85.20
45491;DHT22;31237;45.586;13.782;2022-11-11T15:03:33;14.30;85.20
45491;DHT22;31237;45.586;13.782;2022-11-11T15:08:58;14.30;85.20
45491;DHT22;31237;45.586;13.782;2022-11-11T15:11:32;14.20;85.10
45491;DHT22;31237;45.586;13.782;2022-11-11T15:23:32;14.00;85.30
45491;DHT22;31237;45.586;13.782;2022-11-11T15:31:18;13.70;85.60
45491;DHT22;31237;45.586;13.782;2022-11-11T15:36:57;13.50;85.80
45491;DHT22;31237;45.586;13.782;2022-11-11T15:42:23;13.30;86.10
45491;DHT22;31237;45.586;13.782;2022-11-11T15:44:50;13.30;86.40
45491;DHT22;31237;45.586;13.782;2022-11-11T15:47:18;13.20;86.50
45491;DHT22;31237;45.586;13.782;2022-11-11T15:49:48;13.20;86.60
45491;DHT22;31237;45.586;13.782;2022-11-11T15:52:33;13.10;86.70
45491;DHT22;31237;45.586;13.782;2022-11-11T15:55:08;13.10;86.70
45491;DHT22;31237;45.586;13.782;2022-11-11T15:57:34;13.00;86.80
45491;DHT22;31237;45.586;13.782;2022-11-11T16:00:02;13.00;87.00
45491;DHT22;31237;45.586;13.782;2022-11-11T16:02:33;12.90;86.90
45491;DHT22;31237;45.586;13.782;2022-11-11T16:05:10;12.90;87.00
45491;DHT22;31237;45.586;13.782;2022-11-11T16:07:43;12.90;87.00
45491;DHT22;31237;45.586;13.782;2022-11-11T16:12:55;12.80;87.00
45491;DHT22;31237;45.586;13.782;2022-11-11T16:17:52;12.80;87.00
45491;DHT22;31237;45.586;13.782;2022-11-11T16:20:24;12.80;87.00
45491;DHT22;31237;45.586;13.782;2022-11-11T16:22:56;12.80;87.00
45491;DHT22;31237;45.586;13.782;2022-11-11T16:25:24;12.70;86.90
45491;DHT22;31237;45.586;13.782;2022-11-11T16:27:51;12.70;87.00
45491;DHT22;31237;45.586;13.782;2022-11-11T16:30:34;12.60;87.00
45491;DHT22;31237;45.586;13.782;2022-11-11T16:33:00;12.60;87.00
45491;DHT22;31237;45.586;13.782;2022-11-11T16:35:37;12.50;87.20
45491;DHT22;31237;45.586;13.782;2022-11-11T16:38:04;12.50;87.30
45491;DHT22;31237;45.586;13.782;2022-11-11T16:43:26;12.40;87.50
45491;DHT22;31237;45.586;13.782;2022-11-11T16:46:02;12.40;87.50
45491;DHT22;31237;45.586;13.782;2022-11-11T16:51:00;12.30;87.80
45491;DHT22;31237;45.586;13.782;2022-11-11T16:53:34;12.30;87.90
45491;DHT22;31237;45.586;13.782;2022-11-11T16:56:01;12.20;87.90
45491;DHT22;31237;45.586;13.782;2022-11-11T16:58:28;12.20;88.00
45491;DHT22;31237;45.586;13.782;2022-11-11T17:01:01;12.20;88.00
45491;DHT22;31237;45.586;13.782;2022-11-11T17:03:28;12.20;88.10
45491;DHT22;31237;45.586;13.782;2022-11-11T17:08:43;12.20;88.20
45491;DHT22;31237;45.586;13.782;2022-11-11T17:11:10;12.20;88.20
45491;DHT22;31237;45.586;13.782;2022-11-11T17:13:36;12.20;88.50
45491;DHT22;31237;45.586;13.782;2022-11-11T17:16:04;12.20;88.30
45491;DHT22;31237;45.586;13.782;2022-11-11T17:18:38;12.20;88.30
45491;DHT22;31237;45.586;13.782;2022-11-11T17:21:05;12.10;88.30
45491;DHT22;31237;45.586;13.782;2022-11-11T17:23:31;12.10;88.30
45491;DHT22;31237;45.586;13.782;2022-11-11T17:25:58;12.10;88.30
45491;DHT22;31237;45.586;13.782;2022-11-11T17:28:32;12.10;88.30
45491;DHT22;31237;45.586;13.782;2022-11-11T17:31:06;12.10;88.30
45491;DHT22;31237;45.586;13.782;2022-11-11T17:33:32;12.00;88.40
45491;DHT22;31237;45.586;13.782;2022-11-11T17:35:58;12.00;88.40
45491;DHT22;31237;45.586;13.782;2022-11-11T17:38:26;11.90;88.40
45491;DHT22;31237;45.586;13.782;2022-11-11T17:40:52;11.90;88.40
45491;DHT22;31237;45.586;13.782;2022-11-11T17:43:18;11.80;88.50
45491;DHT22;31237;45.586;13.782;2022-11-11T17:45:43;11.70;88.60
45491;DHT22;31237;45.586;13.782;2022-11-11T17:48:10;11.70;88.70
45491;DHT22;31237;45.586;13.782;2022-11-11T17:50:37;11.70;88.80
45491;DHT22;31237;45.586;13.782;2022-11-11T17:53:07;11.70;88.90
45491;DHT22;31237;45.586;13.782;2022-11-11T17:55:33;11.70;88.80
45491;DHT22;31237;45.586;13.782;2022-11-11T17:57:59;11.70;88.80
45491;DHT22;31237;45.586;13.782;2022-11-11T18:00:26;11.70;88.70
45491;DHT22;31237;45.586;13.782;2022-11-11T18:02:52;11.60;88.70
45491;DHT22;31237;45.586;13.782;2022-11-11T18:05:17;11.60;88.60
45491;DHT22;31237;45.586;13.782;2022-11-11T18:07:43;11.60;88.60
45491;DHT22;31237;45.586;13.782;2022-11-11T18:10:09;11.60;88.70
45491;DHT22;31237;45.586;13.782;2022-11-11T18:12:36;11.50;88.50
45491;DHT22;31237;45.586;13.782;2022-11-11T18:15:02;11.50;88.50
45491;DHT22;31237;45.586;13.782;2022-11-11T18:17:28;11.50;88.60
45491;DHT22;31237;45.586;13.782;2022-11-11T18:19:54;11.50;88.50
45491;DHT22;31237;45.586;13.782;2022-11-11T18:22:20;11.50;88.60
45491;DHT22;31237;45.586;13.782;2022-11-11T18:24:45;11.50;88.60
45491;DHT22;31237;45.586;13.782;2022-11-11T18:27:11;11.40;88.50
45491;DHT22;31237;45.586;13.782;2022-11-11T18:29:37;11.40;88.40